EZY246Y EGKK-EGPH
Flight info
| Callsign | EZY246Y |
|---|---|
| Flight time | 0h 59m |
| Altitude | 38000 |
| Route | LAM L10 BPK UN601 RIBEL DCT INPIP |
| Aircraft | A319/M-SDE3FGHIRWY/LB1 |
Departure
| Time | 2026-04-22 18:38 |
|---|---|
| Airport | London Gatwick Airport (EGKK) |
Arrival
| Time | 2026-04-22 19:38 |
|---|---|
| Airport | Edinburgh Airport (EGPH) |
| Time | Latitude | Longitude | Altitude | Speed | Heading |
|---|---|---|---|---|---|
| 2026-04-22 18:06 | 51.15591 | -0.17621 | 204 ft | 0 kts | 347° |
| 2026-04-22 18:26 | 51.15572 | -0.17614 | 207 ft | 4 kts | 347° |
| 2026-04-22 18:27 | 51.15549 | -0.17606 | 212 ft | 3 kts | 347° |
| 2026-04-22 18:27 | 51.15531 | -0.17592 | 211 ft | 4 kts | 285° |
| 2026-04-22 18:27 | 51.15532 | -0.17556 | 210 ft | 4 kts | 257° |
| 2026-04-22 18:27 | 51.15533 | -0.17546 | 210 ft | 0 kts | 257° |
| 2026-04-22 18:31 | 51.15532 | -0.17552 | 210 ft | 3 kts | 257° |
| 2026-04-22 18:31 | 51.15524 | -0.17610 | 215 ft | 8 kts | 257° |
| 2026-04-22 18:31 | 51.15509 | -0.17721 | 204 ft | 13 kts | 257° |
| 2026-04-22 18:32 | 51.15495 | -0.17822 | 204 ft | 15 kts | 257° |
| 2026-04-22 18:32 | 51.15461 | -0.18065 | 210 ft | 11 kts | 258° |
| 2026-04-22 18:32 | 51.15441 | -0.18209 | 209 ft | 15 kts | 258° |
| 2026-04-22 18:32 | 51.15378 | -0.18273 | 209 ft | 14 kts | 167° |
| 2026-04-22 18:33 | 51.15267 | -0.18232 | 208 ft | 18 kts | 167° |
| 2026-04-22 18:33 | 51.15188 | -0.18280 | 206 ft | 15 kts | 262° |
| 2026-04-22 18:33 | 51.15167 | -0.18464 | 210 ft | 19 kts | 257° |
| 2026-04-22 18:33 | 51.15140 | -0.18657 | 206 ft | 18 kts | 257° |
| 2026-04-22 18:34 | 51.15110 | -0.18873 | 208 ft | 22 kts | 257° |
| 2026-04-22 18:34 | 51.15076 | -0.19116 | 204 ft | 20 kts | 257° |
| 2026-04-22 18:34 | 51.15043 | -0.19354 | 211 ft | 24 kts | 257° |
| 2026-04-22 18:34 | 51.15006 | -0.19631 | 204 ft | 27 kts | 257° |
| 2026-04-22 18:35 | 51.14963 | -0.19942 | 206 ft | 28 kts | 257° |
| 2026-04-22 18:35 | 51.14939 | -0.20111 | 212 ft | 17 kts | 257° |
| 2026-04-22 18:35 | 51.14912 | -0.20308 | 213 ft | 20 kts | 257° |
| 2026-04-22 18:35 | 51.14879 | -0.20551 | 203 ft | 24 kts | 257° |
| 2026-04-22 18:36 | 51.14840 | -0.20831 | 209 ft | 27 kts | 257° |
| 2026-04-22 18:36 | 51.14803 | -0.21095 | 204 ft | 14 kts | 258° |
| 2026-04-22 18:36 | 51.14771 | -0.21271 | 204 ft | 19 kts | 256° |
| 2026-04-22 18:36 | 51.14699 | -0.21397 | 204 ft | 19 kts | 169° |
| 2026-04-22 18:37 | 51.14591 | -0.21314 | 208 ft | 16 kts | 167° |
| 2026-04-22 18:37 | 51.14519 | -0.21214 | 208 ft | 16 kts | 105° |
| 2026-04-22 18:37 | 51.14524 | -0.21138 | 203 ft | 3 kts | 77° |
| 2026-04-22 18:37 | 51.14557 | -0.20903 | 213 ft | 57 kts | 77° |
| 2026-04-22 18:38 | 51.14699 | -0.19879 | 214 ft | 129 kts | 77° |
| 2026-04-22 18:38 | 51.14907 | -0.18281 | 624 ft | 149 kts | 78° |
| 2026-04-22 18:38 | 51.15107 | -0.16671 | 1495 ft | 147 kts | 78° |
| 2026-04-22 18:39 | 51.15570 | -0.13391 | 2857 ft | 168 kts | 81° |
| 2026-04-22 18:39 | 51.15836 | -0.11450 | 3295 ft | 191 kts | 81° |
| 2026-04-22 18:39 | 51.16133 | -0.09287 | 3800 ft | 211 kts | 81° |
| 2026-04-22 18:39 | 51.16558 | -0.06902 | 4349 ft | 239 kts | 68° |
| 2026-04-22 18:40 | 51.17546 | -0.04672 | 5056 ft | 258 kts | 56° |
| 2026-04-22 18:40 | 51.18662 | -0.02403 | 5269 ft | 262 kts | 56° |
| 2026-04-22 18:40 | 51.19779 | -0.00110 | 5323 ft | 262 kts | 56° |
| 2026-04-22 18:40 | 51.20894 | 0.02197 | 5418 ft | 262 kts | 57° |
| 2026-04-22 18:41 | 51.22013 | 0.04521 | 5843 ft | 266 kts | 56° |
| 2026-04-22 18:41 | 51.23141 | 0.06858 | 6987 ft | 267 kts | 56° |
| 2026-04-22 18:41 | 51.24279 | 0.09224 | 8036 ft | 270 kts | 58° |
| 2026-04-22 18:41 | 51.25119 | 0.11885 | 9008 ft | 270 kts | 77° |
| 2026-04-22 18:42 | 51.25377 | 0.13829 | 9656 ft | 272 kts | 82° |
| 2026-04-22 18:42 | 51.25725 | 0.16816 | 10655 ft | 275 kts | 82° |
| 2026-04-22 18:42 | 51.26077 | 0.19835 | 11590 ft | 279 kts | 82° |
| 2026-04-22 18:42 | 51.26438 | 0.22920 | 12508 ft | 283 kts | 82° |
| 2026-04-22 18:43 | 51.26922 | 0.27031 | 13715 ft | 288 kts | 82° |
| 2026-04-22 18:43 | 51.27362 | 0.30174 | 14593 ft | 294 kts | 72° |
| 2026-04-22 18:43 | 51.28011 | 0.32161 | 15097 ft | 302 kts | 57° |
| 2026-04-22 18:43 | 51.30226 | 0.35125 | 15546 ft | 338 kts | 27° |
| 2026-04-22 18:44 | 51.31765 | 0.35788 | 15807 ft | 354 kts | 8° |
| 2026-04-22 18:44 | 51.34239 | 0.35302 | 16314 ft | 367 kts | 341° |
| 2026-04-22 18:44 | 51.36462 | 0.33209 | 16992 ft | 376 kts | 324° |
| 2026-04-22 18:44 | 51.38613 | 0.30811 | 17734 ft | 379 kts | 328° |
| 2026-04-22 18:45 | 51.40869 | 0.28588 | 18509 ft | 382 kts | 331° |
| 2026-04-22 18:45 | 51.43177 | 0.26445 | 19223 ft | 384 kts | 332° |
| 2026-04-22 18:45 | 51.45494 | 0.24307 | 19976 ft | 384 kts | 332° |
| 2026-04-22 18:45 | 51.47794 | 0.22146 | 20817 ft | 382 kts | 332° |
| 2026-04-22 18:46 | 51.50067 | 0.19956 | 21656 ft | 380 kts | 331° |
| 2026-04-22 18:46 | 51.52318 | 0.17741 | 22475 ft | 379 kts | 330° |
| 2026-04-22 18:46 | 51.54558 | 0.15509 | 23235 ft | 379 kts | 330° |
| 2026-04-22 18:46 | 51.56770 | 0.13297 | 23939 ft | 380 kts | 330° |
| 2026-04-22 18:47 | 51.59014 | 0.11051 | 24530 ft | 381 kts | 330° |
| 2026-04-22 18:47 | 51.61266 | 0.08797 | 25083 ft | 382 kts | 330° |
| 2026-04-22 18:47 | 51.63527 | 0.06535 | 25623 ft | 384 kts | 330° |
| 2026-04-22 18:47 | 51.65802 | 0.04264 | 26155 ft | 386 kts | 329° |
| 2026-04-22 18:48 | 51.68087 | 0.01979 | 26666 ft | 387 kts | 329° |
| 2026-04-22 18:48 | 51.70383 | -0.00321 | 27232 ft | 389 kts | 329° |
| 2026-04-22 18:48 | 51.72691 | -0.02633 | 27682 ft | 393 kts | 328° |
| 2026-04-22 18:48 | 51.75022 | -0.04976 | 28119 ft | 396 kts | 328° |
| 2026-04-22 18:49 | 51.77368 | -0.07339 | 28600 ft | 399 kts | 328° |
| 2026-04-22 18:49 | 51.79729 | -0.09719 | 29091 ft | 401 kts | 328° |
| 2026-04-22 18:49 | 51.82102 | -0.12106 | 29574 ft | 403 kts | 328° |
| 2026-04-22 18:49 | 51.84454 | -0.14475 | 29977 ft | 405 kts | 328° |
| 2026-04-22 18:50 | 51.86848 | -0.16892 | 30448 ft | 406 kts | 328° |
| 2026-04-22 18:50 | 51.89252 | -0.19326 | 30838 ft | 408 kts | 327° |
| 2026-04-22 18:50 | 51.91666 | -0.21773 | 31213 ft | 410 kts | 327° |
| 2026-04-22 18:50 | 51.94089 | -0.24234 | 31575 ft | 412 kts | 327° |
| 2026-04-22 18:51 | 51.96527 | -0.26711 | 31934 ft | 415 kts | 327° |
| 2026-04-22 18:51 | 51.98976 | -0.29202 | 32306 ft | 416 kts | 327° |
| 2026-04-22 18:51 | 52.01423 | -0.31692 | 32805 ft | 414 kts | 327° |
| 2026-04-22 18:51 | 52.03859 | -0.34172 | 33345 ft | 413 kts | 327° |
| 2026-04-22 18:52 | 52.06289 | -0.36649 | 33862 ft | 411 kts | 327° |
| 2026-04-22 18:52 | 52.08708 | -0.39119 | 34342 ft | 410 kts | 327° |
| 2026-04-22 18:52 | 52.11121 | -0.41589 | 34763 ft | 410 kts | 327° |
| 2026-04-22 18:52 | 52.13503 | -0.44028 | 35133 ft | 410 kts | 327° |
| 2026-04-22 18:53 | 52.15924 | -0.46511 | 35471 ft | 411 kts | 327° |
| 2026-04-22 18:53 | 52.18345 | -0.49001 | 35788 ft | 412 kts | 327° |
| 2026-04-22 18:53 | 52.20773 | -0.51502 | 36108 ft | 414 kts | 327° |
| 2026-04-22 18:53 | 52.23207 | -0.54015 | 36416 ft | 415 kts | 327° |
| 2026-04-22 18:54 | 52.25648 | -0.56534 | 36722 ft | 416 kts | 327° |
| 2026-04-22 18:54 | 52.28095 | -0.59063 | 37014 ft | 416 kts | 327° |
| 2026-04-22 18:54 | 52.30545 | -0.61599 | 37289 ft | 418 kts | 327° |
| 2026-04-22 18:54 | 52.33003 | -0.64148 | 37549 ft | 419 kts | 327° |
| 2026-04-22 18:55 | 52.35437 | -0.66671 | 37818 ft | 420 kts | 327° |
| 2026-04-22 18:55 | 52.37909 | -0.69234 | 38095 ft | 421 kts | 327° |
| 2026-04-22 18:55 | 52.40383 | -0.71801 | 38329 ft | 422 kts | 328° |
| 2026-04-22 18:55 | 52.42866 | -0.74385 | 38387 ft | 422 kts | 327° |
| 2026-04-22 18:56 | 52.47815 | -0.79546 | 38388 ft | 421 kts | 327° |
| 2026-04-22 18:56 | 52.52757 | -0.84721 | 38386 ft | 421 kts | 327° |
| 2026-04-22 18:57 | 52.57670 | -0.89872 | 38392 ft | 422 kts | 328° |
| 2026-04-22 18:57 | 52.62610 | -0.95066 | 38344 ft | 421 kts | 327° |
| 2026-04-22 18:58 | 52.67546 | -1.00276 | 38332 ft | 421 kts | 327° |
| 2026-04-22 18:58 | 52.72483 | -1.05495 | 38326 ft | 422 kts | 327° |
| 2026-04-22 18:59 | 52.77411 | -1.10628 | 38422 ft | 421 kts | 328° |
| 2026-04-22 18:59 | 52.82430 | -1.15633 | 38419 ft | 421 kts | 329° |
| 2026-04-22 19:00 | 52.87460 | -1.20617 | 38415 ft | 422 kts | 328° |
| 2026-04-22 19:00 | 52.92473 | -1.25655 | 38423 ft | 421 kts | 328° |
| 2026-04-22 19:01 | 52.97439 | -1.30688 | 38419 ft | 422 kts | 328° |
| 2026-04-22 19:01 | 53.02442 | -1.35776 | 38427 ft | 422 kts | 328° |
| 2026-04-22 19:02 | 53.07446 | -1.40874 | 38432 ft | 422 kts | 328° |
| 2026-04-22 19:02 | 53.12458 | -1.45978 | 38430 ft | 423 kts | 328° |
| 2026-04-22 19:03 | 53.17474 | -1.51102 | 38447 ft | 423 kts | 328° |
| 2026-04-22 19:03 | 53.22446 | -1.56212 | 38442 ft | 423 kts | 327° |
| 2026-04-22 19:04 | 53.27456 | -1.61373 | 38447 ft | 423 kts | 328° |
| 2026-04-22 19:04 | 53.32469 | -1.66539 | 38450 ft | 423 kts | 328° |
| 2026-04-22 19:05 | 53.37480 | -1.71704 | 38449 ft | 424 kts | 328° |
| 2026-04-22 19:05 | 53.42498 | -1.76905 | 38457 ft | 424 kts | 328° |
| 2026-04-22 19:06 | 53.47473 | -1.82085 | 38468 ft | 424 kts | 328° |
| 2026-04-22 19:07 | 53.54997 | -1.89931 | 38458 ft | 425 kts | 327° |
| 2026-04-22 19:07 | 53.60007 | -1.95176 | 38464 ft | 424 kts | 327° |
| 2026-04-22 19:08 | 53.65013 | -2.00444 | 38455 ft | 424 kts | 327° |
| 2026-04-22 19:08 | 53.69984 | -2.05685 | 38465 ft | 424 kts | 327° |
| 2026-04-22 19:09 | 53.75059 | -2.10764 | 38451 ft | 425 kts | 335° |
| 2026-04-22 19:09 | 53.80556 | -2.14548 | 38438 ft | 427 kts | 337° |
| 2026-04-22 19:10 | 53.86080 | -2.18297 | 38446 ft | 428 kts | 337° |
| 2026-04-22 19:10 | 53.91613 | -2.22083 | 38448 ft | 429 kts | 336° |
| 2026-04-22 19:11 | 53.97113 | -2.25866 | 38467 ft | 430 kts | 337° |
| 2026-04-22 19:11 | 54.02663 | -2.29685 | 38471 ft | 430 kts | 337° |
| 2026-04-22 19:12 | 54.08214 | -2.33511 | 38458 ft | 431 kts | 337° |
| 2026-04-22 19:12 | 54.13773 | -2.37362 | 38466 ft | 431 kts | 337° |
| 2026-04-22 19:13 | 54.19294 | -2.41200 | 38471 ft | 431 kts | 337° |
| 2026-04-22 19:13 | 54.24855 | -2.45073 | 38483 ft | 432 kts | 337° |
| 2026-04-22 19:14 | 54.30424 | -2.48958 | 38299 ft | 433 kts | 337° |
| 2026-04-22 19:14 | 54.33208 | -2.50909 | 38025 ft | 432 kts | 336° |
| 2026-04-22 19:14 | 54.35983 | -2.52858 | 37600 ft | 430 kts | 336° |
| 2026-04-22 19:14 | 54.38754 | -2.54803 | 36815 ft | 432 kts | 335° |
| 2026-04-22 19:15 | 54.40603 | -2.56101 | 36269 ft | 434 kts | 336° |
| 2026-04-22 19:15 | 54.44320 | -2.58713 | 35100 ft | 438 kts | 335° |
| 2026-04-22 19:15 | 54.47146 | -2.60705 | 34392 ft | 438 kts | 335° |
| 2026-04-22 19:15 | 54.49942 | -2.62674 | 33840 ft | 431 kts | 335° |
| 2026-04-22 19:16 | 54.52702 | -2.64619 | 33295 ft | 425 kts | 335° |
| 2026-04-22 19:16 | 54.55419 | -2.66542 | 32742 ft | 420 kts | 335° |
| 2026-04-22 19:16 | 54.58100 | -2.68445 | 32202 ft | 415 kts | 334° |
| 2026-04-22 19:16 | 54.60754 | -2.70329 | 31674 ft | 410 kts | 334° |
| 2026-04-22 19:17 | 54.63343 | -2.72172 | 31162 ft | 406 kts | 334° |
| 2026-04-22 19:17 | 54.65948 | -2.74029 | 30648 ft | 403 kts | 334° |
| 2026-04-22 19:17 | 54.68527 | -2.75873 | 30082 ft | 399 kts | 334° |
| 2026-04-22 19:17 | 54.71072 | -2.77696 | 29589 ft | 394 kts | 334° |
| 2026-04-22 19:18 | 54.73590 | -2.79499 | 29102 ft | 389 kts | 334° |
| 2026-04-22 19:18 | 54.76082 | -2.81285 | 28616 ft | 386 kts | 334° |
| 2026-04-22 19:18 | 54.78550 | -2.83051 | 28138 ft | 382 kts | 334° |
| 2026-04-22 19:18 | 54.80999 | -2.84807 | 27682 ft | 379 kts | 334° |
| 2026-04-22 19:19 | 54.83431 | -2.86557 | 27235 ft | 377 kts | 334° |
| 2026-04-22 19:19 | 54.85811 | -2.88270 | 26804 ft | 374 kts | 335° |
| 2026-04-22 19:19 | 54.88207 | -2.89993 | 26364 ft | 371 kts | 334° |
| 2026-04-22 19:19 | 54.90612 | -2.91725 | 25826 ft | 377 kts | 334° |
| 2026-04-22 19:20 | 54.93035 | -2.93477 | 25297 ft | 377 kts | 335° |
| 2026-04-22 19:20 | 54.95453 | -2.95231 | 24774 ft | 377 kts | 335° |
| 2026-04-22 19:20 | 54.97872 | -2.96987 | 24254 ft | 376 kts | 334° |
| 2026-04-22 19:20 | 55.00290 | -2.98745 | 23664 ft | 376 kts | 335° |
| 2026-04-22 19:21 | 55.02697 | -3.00497 | 23155 ft | 374 kts | 335° |
| 2026-04-22 19:21 | 55.05093 | -3.02240 | 22620 ft | 372 kts | 335° |
| 2026-04-22 19:21 | 55.07471 | -3.03970 | 22104 ft | 370 kts | 335° |
| 2026-04-22 19:21 | 55.09808 | -3.05675 | 21602 ft | 368 kts | 336° |
| 2026-04-22 19:22 | 55.12167 | -3.07398 | 21070 ft | 367 kts | 336° |
| 2026-04-22 19:22 | 55.14520 | -3.09117 | 20571 ft | 366 kts | 336° |
| 2026-04-22 19:22 | 55.16867 | -3.10837 | 20002 ft | 367 kts | 336° |
| 2026-04-22 19:22 | 55.19228 | -3.12570 | 19405 ft | 370 kts | 336° |
| 2026-04-22 19:23 | 55.21606 | -3.14315 | 18801 ft | 370 kts | 336° |
| 2026-04-22 19:23 | 55.23973 | -3.16053 | 18162 ft | 367 kts | 336° |
| 2026-04-22 19:23 | 55.26312 | -3.17775 | 17569 ft | 362 kts | 336° |
| 2026-04-22 19:23 | 55.28601 | -3.19465 | 17259 ft | 349 kts | 336° |
| 2026-04-22 19:24 | 55.30737 | -3.21278 | 16956 ft | 335 kts | 328° |
| 2026-04-22 19:24 | 55.32712 | -3.23313 | 16583 ft | 332 kts | 328° |
| 2026-04-22 19:24 | 55.34690 | -3.25341 | 16087 ft | 328 kts | 328° |
| 2026-04-22 19:24 | 55.36659 | -3.27360 | 15575 ft | 327 kts | 328° |
| 2026-04-22 19:25 | 55.38622 | -3.29368 | 15066 ft | 326 kts | 328° |
| 2026-04-22 19:25 | 55.40581 | -3.31379 | 14558 ft | 326 kts | 328° |
| 2026-04-22 19:25 | 55.42521 | -3.33380 | 14116 ft | 322 kts | 329° |
| 2026-04-22 19:25 | 55.44461 | -3.35383 | 13553 ft | 320 kts | 329° |
| 2026-04-22 19:26 | 55.46366 | -3.37349 | 13005 ft | 315 kts | 329° |
| 2026-04-22 19:26 | 55.48252 | -3.39295 | 12510 ft | 313 kts | 329° |
| 2026-04-22 19:26 | 55.50127 | -3.41232 | 12027 ft | 312 kts | 329° |
| 2026-04-22 19:26 | 55.51976 | -3.43146 | 11551 ft | 313 kts | 329° |
| 2026-04-22 19:27 | 55.53847 | -3.45085 | 11064 ft | 311 kts | 329° |
| 2026-04-22 19:27 | 55.55704 | -3.47010 | 10585 ft | 309 kts | 329° |
| 2026-04-22 19:27 | 55.57551 | -3.48928 | 10076 ft | 307 kts | 329° |
| 2026-04-22 19:27 | 55.59345 | -3.50799 | 9910 ft | 289 kts | 329° |
| 2026-04-22 19:28 | 55.61019 | -3.52548 | 9850 ft | 271 kts | 329° |
| 2026-04-22 19:28 | 55.62601 | -3.54201 | 9764 ft | 257 kts | 329° |
| 2026-04-22 19:28 | 55.64111 | -3.55791 | 9638 ft | 248 kts | 327° |
| 2026-04-22 19:28 | 55.65358 | -3.57797 | 9426 ft | 240 kts | 311° |
| 2026-04-22 19:29 | 55.66548 | -3.59871 | 9057 ft | 242 kts | 316° |
| 2026-04-22 19:29 | 55.67781 | -3.61865 | 8687 ft | 244 kts | 317° |
| 2026-04-22 19:29 | 55.69050 | -3.63871 | 8352 ft | 246 kts | 318° |
| 2026-04-22 19:29 | 55.70363 | -3.65822 | 8028 ft | 247 kts | 321° |
| 2026-04-22 19:30 | 55.71239 | -3.67076 | 7935 ft | 242 kts | 321° |
| 2026-04-22 19:30 | 55.73001 | -3.69574 | 7478 ft | 245 kts | 321° |
| 2026-04-22 19:30 | 55.74339 | -3.71480 | 7113 ft | 248 kts | 321° |
| 2026-04-22 19:30 | 55.75680 | -3.73434 | 6735 ft | 251 kts | 319° |
| 2026-04-22 19:31 | 55.76962 | -3.75553 | 6348 ft | 253 kts | 316° |
| 2026-04-22 19:31 | 55.78350 | -3.77384 | 5948 ft | 253 kts | 335° |
| 2026-04-22 19:31 | 55.80043 | -3.77935 | 5566 ft | 247 kts | 11° |
| 2026-04-22 19:31 | 55.81529 | -3.76642 | 5150 ft | 237 kts | 51° |
| 2026-04-22 19:32 | 55.82410 | -3.74254 | 4825 ft | 230 kts | 64° |
| 2026-04-22 19:32 | 55.83203 | -3.71806 | 4490 ft | 226 kts | 63° |
| 2026-04-22 19:32 | 55.83999 | -3.69457 | 4198 ft | 217 kts | 63° |
| 2026-04-22 19:32 | 55.84771 | -3.67208 | 3911 ft | 209 kts | 63° |
| 2026-04-22 19:33 | 55.85519 | -3.65032 | 3630 ft | 202 kts | 63° |
| 2026-04-22 19:33 | 55.86238 | -3.62938 | 3358 ft | 195 kts | 63° |
| 2026-04-22 19:33 | 55.86929 | -3.60921 | 3094 ft | 187 kts | 63° |
| 2026-04-22 19:33 | 55.87594 | -3.58979 | 2869 ft | 182 kts | 63° |
| 2026-04-22 19:34 | 55.88244 | -3.57077 | 2602 ft | 177 kts | 62° |
| 2026-04-22 19:34 | 55.88861 | -3.55277 | 2356 ft | 167 kts | 62° |
| 2026-04-22 19:34 | 55.89436 | -3.53597 | 2140 ft | 147 kts | 62° |
| 2026-04-22 19:34 | 55.89928 | -3.52156 | 1932 ft | 126 kts | 62° |
| 2026-04-22 19:35 | 55.90366 | -3.50871 | 1763 ft | 118 kts | 62° |
| 2026-04-22 19:35 | 55.90785 | -3.49641 | 1599 ft | 114 kts | 63° |
| 2026-04-22 19:35 | 55.91194 | -3.48441 | 1447 ft | 112 kts | 63° |
| 2026-04-22 19:35 | 55.91599 | -3.47250 | 1297 ft | 113 kts | 63° |
| 2026-04-22 19:36 | 55.92006 | -3.46057 | 1122 ft | 112 kts | 63° |
| 2026-04-22 19:36 | 55.92405 | -3.44885 | 962 ft | 112 kts | 60° |
| 2026-04-22 19:36 | 55.92810 | -3.43694 | 809 ft | 112 kts | 59° |
| 2026-04-22 19:36 | 55.93214 | -3.42506 | 654 ft | 112 kts | 59° |
| 2026-04-22 19:37 | 55.93616 | -3.41323 | 499 ft | 112 kts | 61° |
| 2026-04-22 19:37 | 55.94020 | -3.40135 | 353 ft | 111 kts | 59° |
| 2026-04-22 19:37 | 55.94423 | -3.38946 | 182 ft | 113 kts | 59° |
| 2026-04-22 19:37 | 55.94807 | -3.37800 | 113 ft | 96 kts | 58° |
| 2026-04-22 19:38 | 55.95068 | -3.37046 | 113 ft | 46 kts | 58° |
| 2026-04-22 19:38 | 55.95157 | -3.36785 | 114 ft | 14 kts | 58° |
| 2026-04-22 19:38 | 55.95215 | -3.36612 | 113 ft | 20 kts | 59° |
| 2026-04-22 19:38 | 55.95246 | -3.36412 | 111 ft | 13 kts | 131° |
| 2026-04-22 19:39 | 55.95186 | -3.36343 | 115 ft | 0 kts | 149° |
| 2026-04-22 19:39 | 55.95184 | -3.36340 | 114 ft | 1 kts | 149° |
| 2026-04-22 19:39 | 55.95178 | -3.36334 | 115 ft | 1 kts | 149° |
| 2026-04-22 19:39 | 55.95167 | -3.36322 | 114 ft | 2 kts | 149° |
| 2026-04-22 19:40 | 55.95148 | -3.36286 | 116 ft | 6 kts | 120° |
| 2026-04-22 19:40 | 55.95129 | -3.36199 | 116 ft | 9 kts | 108° |
| 2026-04-22 19:40 | 55.95106 | -3.36070 | 115 ft | 13 kts | 108° |
| 2026-04-22 19:40 | 55.95069 | -3.35914 | 114 ft | 14 kts | 118° |
| 2026-04-22 19:41 | 55.95012 | -3.35834 | 114 ft | 11 kts | 191° |
| 2026-04-22 19:41 | 55.94934 | -3.35844 | 114 ft | 13 kts | 148° |
| 2026-04-22 19:41 | 55.94885 | -3.35704 | 116 ft | 14 kts | 119° |
| 2026-04-22 19:41 | 55.94852 | -3.35625 | 115 ft | 1 kts | 182° |
| 2026-04-22 19:42 | 55.94843 | -3.35638 | 115 ft | 1 kts | 213° |
| 2026-04-22 19:42 | 55.94828 | -3.35653 | 117 ft | 4 kts | 210° |
| 2026-04-22 19:42 | 55.94800 | -3.35681 | 115 ft | 2 kts | 208° |
| 2026-04-22 19:42 | 55.94794 | -3.35686 | 115 ft | 0 kts | 208° |